Time;durP1;ratioP1;P1;durP2;ratioP2;P2;SDS_P1;SDS_P2;PMS_P1;PMS_P2;Temp;Humidity;BMP_temperature;BMP_pressure;BME280_temperature;BME280_humidity;BME280_pressure;Samples;Min_cycle;Max_cycle;Signal;HPM_P1;HPM_P2
2024/02/16 00:01:03;;;;;;;16.80;6.60;;;;;;;3.30;62.50;94451.94;5004328;28;20022;-77
2024/02/16 00:03:29;;;;;;;14.48;6.63;;;;;;;3.27;62.66;94451.66;5004728;28;20061;-78
2024/02/16 00:05:55;;;;;;;15.55;7.30;;;;;;;3.24;62.77;94452.13;5004429;28;20069;-78
2024/02/16 00:08:20;;;;;;;16.23;7.63;;;;;;;3.22;62.77;94457.69;5004715;28;20045;-78
2024/02/16 00:10:47;;;;;;;12.00;7.57;;;;;;;3.17;62.87;94453.16;5004549;28;20022;-78
2024/02/16 00:13:13;;;;;;;12.18;6.78;;;;;;;3.15;63.05;94455.25;5004378;28;20030;-78
2024/02/16 00:15:38;;;;;;;14.52;6.53;;;;;;;3.17;63.08;94457.63;5004678;28;20054;-78
2024/02/16 00:18:04;;;;;;;13.38;6.93;;;;;;;3.16;62.99;94456.06;5004253;28;20205;-78
2024/02/16 00:20:31;;;;;;;17.23;6.35;;;;;;;3.15;62.91;94454.44;5004352;28;20036;-78
2024/02/16 00:22:57;;;;;;;13.38;6.47;;;;;;;3.07;63.03;94452.28;5004212;28;20375;-78
2024/02/16 00:25:22;;;;;;;20.60;6.60;;;;;;;3.07;62.83;94460.97;5004425;28;20034;-78
2024/02/16 00:27:47;;;;;;;10.88;5.88;;;;;;;3.00;63.10;94455.13;5004043;28;20030;-78
2024/02/16 00:30:15;;;;;;;17.60;6.68;;;;;;;2.97;63.20;94463.53;5004279;28;20022;-78
2024/02/16 00:32:41;;;;;;;17.92;6.38;;;;;;;2.90;63.58;94460.31;5004217;28;20194;-78
2024/02/16 00:35:06;;;;;;;13.45;7.60;;;;;;;2.80;64.23;94463.63;5004120;28;20052;-78
2024/02/16 00:37:31;;;;;;;13.93;6.05;;;;;;;2.66;64.50;94462.44;5004481;28;20037;-78
2024/02/16 00:39:57;;;;;;;14.05;6.97;;;;;;;2.38;65.87;94457.19;5003894;28;20029;-78
2024/02/16 00:42:23;;;;;;;13.20;6.35;;;;;;;2.35;66.13;94454.25;5004093;28;20034;-78
2024/02/16 00:44:49;;;;;;;17.02;6.97;;;;;;;2.30;66.42;94462.88;5003905;28;20022;-77
2024/02/16 00:47:16;;;;;;;13.95;6.32;;;;;;;2.19;66.79;94459.31;5004053;28;20038;-78
2024/02/16 00:49:42;;;;;;;12.60;6.28;;;;;;;2.09;67.27;94456.56;5003817;28;20268;-77
2024/02/16 00:52:10;;;;;;;14.43;6.53;;;;;;;2.04;67.78;94469.66;5002570;28;20050;-78
2024/02/16 00:54:35;;;;;;;11.45;6.43;;;;;;;2.02;67.82;94466.50;5003518;28;20065;-78
2024/02/16 00:57:02;;;;;;;16.35;6.60;;;;;;;2.03;67.61;94465.44;5003861;28;20295;-78
2024/02/16 00:59:28;;;;;;;13.43;6.28;;;;;;;1.93;68.13;94463.47;5002873;28;20137;-78
2024/02/16 01:01:54;;;;;;;12.80;6.70;;;;;;;1.94;68.30;94466.91;5003560;28;20380;-77
2024/02/16 01:04:19;;;;;;;15.93;6.35;;;;;;;1.91;68.44;94472.66;5003679;28;20041;-77
2024/02/16 01:06:44;;;;;;;15.82;6.63;;;;;;;1.92;68.45;94466.38;5003805;28;20038;-78
2024/02/16 01:09:12;;;;;;;12.40;5.95;;;;;;;1.90;68.29;94460.56;5002113;28;20065;-78
2024/02/16 01:11:40;;;;;;;11.45;5.53;;;;;;;1.91;68.27;94456.88;5003443;28;20076;-78
2024/02/16 01:14:05;;;;;;;16.40;6.60;;;;;;;1.96;68.19;94459.59;5003374;28;20022;-78
2024/02/16 01:16:30;;;;;;;12.38;5.75;;;;;;;1.96;68.13;94468.25;5003918;28;20037;-78
2024/02/16 01:18:56;;;;;;;10.13;5.90;;;;;;;2.03;67.89;94460.19;5003621;28;20034;-78
2024/02/16 01:21:22;;;;;;;13.45;6.00;;;;;;;2.04;67.68;94458.38;5003430;28;20254;-77
2024/02/16 01:23:48;;;;;;;12.00;5.88;;;;;;;2.05;67.56;94457.31;5003702;28;20022;-78
2024/02/16 01:26:13;;;;;;;11.40;5.18;;;;;;;2.08;67.32;94452.38;5002300;28;20037;-78
2024/02/16 01:28:39;;;;;;;19.48;6.32;;;;;;;2.14;67.02;94455.84;5003368;28;20034;-78
2024/02/16 01:31:04;;;;;;;10.02;5.35;;;;;;;2.18;66.79;94452.47;5002482;28;20032;-78
2024/02/16 01:33:29;;;;;;;8.82;4.68;;;;;;;2.21;66.71;94451.97;5002222;28;20026;-78
2024/02/16 01:35:55;;;;;;;11.48;4.88;;;;;;;2.22;66.56;94447.53;5001999;28;20029;-78
2024/02/16 01:38:22;;;;;;;8.50;4.47;;;;;;;2.27;66.06;94449.41;5003412;28;20026;-79
2024/02/16 01:40:48;;;;;;;7.53;3.55;;;;;;;2.26;65.82;94446.00;5003521;28;20028;-77
2024/02/16 01:43:13;;;;;;;6.80;3.80;;;;;;;2.31;65.76;94434.72;5003776;28;20034;-78
2024/02/16 01:45:38;;;;;;;7.47;3.97;;;;;;;2.36;65.35;94438.22;5003450;28;20089;-79
2024/02/16 01:48:04;;;;;;;14.05;5.03;;;;;;;2.37;65.79;94439.78;5003346;28;20022;-78
2024/02/16 01:50:30;;;;;;;8.18;3.88;;;;;;;2.35;65.60;94438.47;5003211;28;20030;-78
2024/02/16 01:52:55;;;;;;;11.02;4.25;;;;;;;2.33;65.49;94437.91;5003276;28;20026;-78
2024/02/16 01:55:21;;;;;;;9.27;3.90;;;;;;;2.32;65.44;94434.50;5002975;28;20046;-78
2024/02/16 01:57:48;;;;;;;8.80;3.10;;;;;;;2.31;65.67;94426.84;5003140;28;20045;-78
2024/02/16 02:00:14;;;;;;;8.43;3.20;;;;;;;2.27;65.42;94428.38;5002968;28;20033;-78
2024/02/16 02:02:41;;;;;;;5.03;2.78;;;;;;;2.27;65.85;94436.25;5003571;28;20316;-78
2024/02/16 02:05:07;;;;;;;8.45;3.05;;;;;;;2.25;66.04;94433.09;5007064;28;20428;-78
2024/02/16 02:07:32;;;;;;;5.68;2.80;;;;;;;2.18;66.12;94441.19;5007155;28;20046;-78
2024/02/16 02:09:58;;;;;;;8.20;3.20;;;;;;;2.16;66.19;94432.75;5006934;28;20050;-77
2024/02/16 02:12:24;;;;;;;8.73;3.00;;;;;;;2.12;66.39;94434.28;5006911;28;20026;-77
2024/02/16 02:14:49;;;;;;;9.32;3.75;;;;;;;2.09;66.60;94432.13;5006322;28;20033;-78
2024/02/16 02:17:16;;;;;;;6.18;3.10;;;;;;;2.06;66.88;94435.25;5006764;28;20253;-78
2024/02/16 02:19:41;;;;;;;6.20;3.03;;;;;;;2.09;66.58;94427.63;5006784;28;20048;-78
2024/02/16 02:22:20;;;;;;;7.50;3.10;;;;;;;2.12;66.56;94429.00;5006460;28;20340;-78
2024/02/16 02:24:47;;;;;;;4.75;2.60;;;;;;;2.13;65.99;94434.00;5006435;28;20223;-77
2024/02/16 02:27:13;;;;;;;6.10;2.92;;;;;;;2.17;66.10;94440.34;5006353;28;20081;-78
2024/02/16 02:29:40;;;;;;;7.53;3.50;;;;;;;2.18;66.13;94441.19;5006380;28;20073;-78
2024/02/16 02:32:06;;;;;;;6.90;3.53;;;;;;;2.25;65.86;94440.97;5006464;28;20033;-78
2024/02/16 02:34:32;;;;;;;8.13;3.65;;;;;;;2.27;65.83;94433.63;5006978;28;20026;-77
2024/02/16 02:36:57;;;;;;;10.05;3.88;;;;;;;2.32;65.55;94441.56;5005487;28;20049;-77
2024/02/16 02:39:23;;;;;;;7.10;4.20;;;;;;;2.29;65.90;94436.81;5006301;28;20030;-76
2024/02/16 02:41:48;;;;;;;7.82;4.03;;;;;;;2.31;65.45;94440.78;5006517;28;20035;-77
2024/02/16 02:44:14;;;;;;;11.15;4.60;;;;;;;2.32;65.68;94441.56;5006409;28;20045;-78
2024/02/16 02:46:39;;;;;;;10.40;4.47;;;;;;;2.29;65.80;94442.06;5006436;28;20093;-78
2024/02/16 02:49:05;;;;;;;9.48;4.55;;;;;;;2.25;66.02;94428.63;5006307;28;20072;-78
2024/02/16 02:51:30;;;;;;;8.63;4.45;;;;;;;2.17;66.57;94436.94;5006603;28;20093;-78
2024/02/16 02:53:56;;;;;;;9.57;4.05;;;;;;;2.09;66.54;94437.38;5006038;28;20053;-78
2024/02/16 02:56:21;;;;;;;10.55;4.35;;;;;;;2.09;66.73;94437.38;5006335;28;20026;-78
2024/02/16 02:58:47;;;;;;;8.43;3.47;;;;;;;2.14;66.62;94435.59;5006411;28;20030;-77
2024/02/16 03:01:13;;;;;;;8.75;3.28;;;;;;;2.15;66.17;94439.81;5005925;28;20073;-76
2024/02/16 03:03:40;;;;;;;8.13;3.15;;;;;;;2.16;65.99;94438.78;5005850;28;20030;-76
2024/02/16 03:06:07;;;;;;;6.38;3.25;;;;;;;2.16;66.31;94444.03;5005893;28;20026;-77
2024/02/16 03:08:33;;;;;;;6.82;2.78;;;;;;;2.14;66.35;94438.22;5005803;28;20060;-77
2024/02/16 03:11:02;;;;;;;6.70;2.65;;;;;;;2.16;66.11;94438.00;5004623;28;20030;-77
2024/02/16 03:13:27;;;;;;;4.15;2.30;;;;;;;2.20;65.82;94439.09;5005674;28;20072;-77
2024/02/16 03:15:53;;;;;;;9.45;2.70;;;;;;;2.25;65.68;94440.97;5004401;28;20026;-77
2024/02/16 03:18:19;;;;;;;5.60;2.33;;;;;;;2.19;65.94;94432.22;5005491;28;20026;-77
2024/02/16 03:20:47;;;;;;;4.97;1.90;;;;;;;2.18;66.10;94439.34;5005359;28;20030;-77
2024/02/16 03:23:13;;;;;;;4.25;1.58;;;;;;;2.10;66.36;94431.88;5005346;28;20022;-77
2024/02/16 03:25:39;;;;;;;3.33;1.92;;;;;;;2.07;66.50;94434.19;5005410;28;20216;-78
2024/02/16 03:28:05;;;;;;;3.28;1.83;;;;;;;2.06;66.45;94433.41;5005427;28;20022;-76
2024/02/16 03:30:30;;;;;;;2.95;1.65;;;;;;;2.03;66.56;94439.16;5004191;28;20026;-77
2024/02/16 03:32:56;;;;;;;2.45;1.83;;;;;;;2.02;67.15;94434.94;5005173;28;20081;-77
2024/02/16 03:35:21;;;;;;;5.47;2.40;;;;;;;2.03;66.69;94447.03;5005127;28;20046;-76
2024/02/16 03:37:46;;;;;;;5.47;2.60;;;;;;;2.06;66.84;94440.50;5005206;28;20022;-77
2024/02/16 03:40:12;;;;;;;4.18;2.42;;;;;;;2.10;66.70;94437.13;5005160;28;20042;-76
2024/02/16 03:42:41;;;;;;;5.30;2.78;;;;;;;2.16;66.69;94443.25;5005086;28;20033;-77
2024/02/16 03:45:07;;;;;;;9.20;2.50;;;;;;;2.18;66.36;94447.22;5005158;28;20045;-77
2024/02/16 03:47:33;;;;;;;3.53;1.85;;;;;;;2.12;66.66;94435.06;5004920;28;20018;-76
2024/02/16 03:49:58;;;;;;;8.40;2.72;;;;;;;2.15;66.44;94442.44;5004881;28;20022;-77
2024/02/16 03:52:24;;;;;;;4.55;2.03;;;;;;;2.18;66.33;94446.44;5004873;28;20018;-77
2024/02/16 03:54:50;;;;;;;4.55;2.47;;;;;;;2.22;66.18;94442.28;5004534;28;20048;-76
2024/02/16 03:57:16;;;;;;;6.20;3.53;;;;;;;2.21;66.23;94440.66;5004708;28;20022;-76
2024/02/16 03:59:45;;;;;;;9.00;3.50;;;;;;;2.23;66.32;94446.47;5003436;28;20022;-77
2024/02/16 04:02:13;;;;;;;7.15;3.08;;;;;;;2.23;66.09;94432.53;5004425;28;20058;-77
2024/02/16 04:04:39;;;;;;;3.58;2.00;;;;;;;2.15;66.41;94436.38;5004375;28;20068;-76
2024/02/16 04:07:06;;;;;;;4.50;1.88;;;;;;;2.08;66.51;94436.59;5004413;28;20022;-76
2024/02/16 04:09:32;;;;;;;5.90;2.55;;;;;;;1.99;67.09;94444.13;5004562;28;20025;-76
2024/02/16 04:11:57;;;;;;;4.65;1.92;;;;;;;1.97;67.34;94434.88;5004783;28;20010;-77
2024/02/16 04:14:22;;;;;;;5.10;2.88;;;;;;;1.97;67.47;94432.22;5004399;28;20018;-76
2024/02/16 04:16:49;;;;;;;6.07;3.22;;;;;;;1.98;67.34;94431.22;5004289;28;20034;-77
2024/02/16 04:19:14;;;;;;;6.45;3.05;;;;;;;1.95;67.40;94424.59;5004429;28;20255;-77
2024/02/16 04:21:39;;;;;;;9.35;3.70;;;;;;;1.94;67.61;94430.91;5004065;28;20022;-78
2024/02/16 04:24:05;;;;;;;7.13;3.30;;;;;;;1.92;67.57;94427.72;5004132;28;20014;-77
2024/02/16 04:26:31;;;;;;;7.55;3.08;;;;;;;1.90;67.73;94426.38;5003894;28;20217;-77
2024/02/16 04:28:56;;;;;;;7.30;3.67;;;;;;;1.85;67.51;94426.31;5004157;28;20026;-77
2024/02/16 04:31:22;;;;;;;10.27;3.83;;;;;;;1.83;67.82;94431.78;5004122;28;20090;-76
2024/02/16 04:33:47;;;;;;;7.13;3.55;;;;;;;1.83;67.87;94434.44;5004008;28;20049;-77
2024/02/16 04:36:12;;;;;;;5.10;2.95;;;;;;;1.78;67.99;94445.69;5003985;28;20030;-76
2024/02/16 04:38:38;;;;;;;6.68;3.17;;;;;;;1.77;68.04;94438.84;5003998;28;20053;-76
2024/02/16 04:41:07;;;;;;;9.60;3.72;;;;;;;1.79;68.09;94444.66;5003965;28;20321;-77
2024/02/16 04:43:33;;;;;;;8.02;3.38;;;;;;;1.78;68.17;94443.06;5004006;28;20019;-76
2024/02/16 04:45:59;;;;;;;7.07;3.78;;;;;;;1.78;68.29;94447.53;5003769;28;20037;-76
2024/02/16 04:48:25;;;;;;;7.13;3.10;;;;;;;1.75;68.49;94440.09;5003739;28;20014;-76
2024/02/16 04:50:51;;;;;;;8.35;4.35;;;;;;;1.68;68.37;94432.41;5002626;28;20106;-76
2024/02/16 04:53:17;;;;;;;5.05;3.08;;;;;;;1.58;68.77;94442.78;5003485;28;20026;-76
2024/02/16 04:55:42;;;;;;;6.53;4.03;;;;;;;1.60;68.83;94445.97;5003547;28;20024;-76
2024/02/16 04:58:09;;;;;;;9.30;4.13;;;;;;;1.60;68.88;94453.84;5003396;28;20022;-77
2024/02/16 05:00:37;;;;;;;9.82;3.97;;;;;;;1.64;68.97;94444.44;5003354;28;20027;-76
2024/02/16 05:03:03;;;;;;;8.88;4.50;;;;;;;1.58;68.89;94450.66;5003475;28;20022;-76
2024/02/16 05:05:28;;;;;;;11.32;4.07;;;;;;;1.63;69.16;94456.00;5003644;28;20029;-77
2024/02/16 05:07:54;;;;;;;10.02;3.85;;;;;;;1.60;69.28;94445.97;5003532;28;20045;-77
2024/02/16 05:10:19;;;;;;;12.48;4.55;;;;;;;1.61;69.45;94458.06;5003394;28;20026;-77
2024/02/16 05:12:45;;;;;;;8.52;4.68;;;;;;;1.56;69.35;94455.38;5003384;28;20018;-77
2024/02/16 05:15:13;;;;;;;6.85;3.92;;;;;;;1.57;69.36;94460.38;5003530;28;20096;-77
2024/02/16 05:17:39;;;;;;;9.30;4.95;;;;;;;1.50;69.36;94459.75;5003156;28;20022;-77
2024/02/16 05:20:09;;;;;;;6.68;3.67;;;;;;;1.48;69.66;94474.16;5003366;28;20023;-77
2024/02/16 05:22:35;;;;;;;7.32;3.63;;;;;;;1.50;69.38;94461.59;5003198;28;20255;-76
2024/02/16 05:25:00;;;;;;;7.68;4.32;;;;;;;1.51;69.55;94468.44;5003228;28;20061;-76
2024/02/16 05:27:26;;;;;;;8.63;4.43;;;;;;;1.50;69.51;94472.88;5003372;28;20037;-76
2024/02/16 05:29:51;;;;;;;8.30;4.60;;;;;;;1.56;69.44;94482.44;5003296;28;20040;-77
2024/02/16 05:32:17;;;;;;;9.38;4.78;;;;;;;1.56;69.25;94481.63;5003174;28;20093;-77
2024/02/16 05:34:42;;;;;;;11.50;4.32;;;;;;;1.50;69.56;94482.59;5003284;28;20081;-77
2024/02/16 05:37:08;;;;;;;8.80;4.72;;;;;;;1.52;69.46;94481.31;5003348;28;20041;-77
2024/02/16 05:39:43;;;;;;;5.75;3.90;;;;;;;1.50;69.50;94483.38;5006843;28;20264;-76
2024/02/16 05:42:08;;;;;;;10.52;4.53;;;;;;;1.42;69.60;94480.38;5007182;28;20022;-77
2024/02/16 05:44:34;;;;;;;8.95;4.45;;;;;;;1.37;70.03;94484.53;5007294;28;20061;-76
2024/02/16 05:46:59;;;;;;;11.65;5.22;;;;;;;1.43;70.23;94495.13;5007210;28;20229;-76
2024/02/16 05:49:25;;;;;;;16.60;5.07;;;;;;;1.52;69.88;94496.28;5007364;28;20042;-76
2024/02/16 05:54:34;;;;;;;20.50;6.53;;;;;;;1.48;69.76;94493.34;5006945;28;20085;-77
2024/02/16 05:56:59;;;;;;;9.32;5.22;;;;;;;1.44;69.90;94494.06;5007253;28;20022;-77
2024/02/16 05:59:26;;;;;;;13.95;5.43;;;;;;;1.42;70.48;94496.94;5005887;28;20022;-76
2024/02/16 06:01:52;;;;;;;12.23;5.60;;;;;;;1.40;70.73;94499.00;5006991;28;20267;-75
2024/02/16 06:04:17;;;;;;;11.40;5.72;;;;;;;1.38;71.00;94496.63;5006586;28;20045;-75
2024/02/16 06:06:43;;;;;;;10.70;5.40;;;;;;;1.40;71.09;94505.06;5007416;28;20090;-77
2024/02/16 06:09:08;;;;;;;12.18;5.30;;;;;;;1.37;71.12;94495.03;5005955;28;20022;-77
2024/02/16 06:11:37;;;;;;;14.63;6.57;;;;;;;1.28;71.60;94493.81;5006704;28;20309;-77
2024/02/16 06:14:03;;;;;;;13.27;6.15;;;;;;;1.40;71.58;94491.13;5006474;28;20022;-77
2024/02/16 06:16:28;;;;;;;12.18;5.47;;;;;;;1.50;71.31;94488.66;5006725;28;20037;-77
2024/02/16 06:18:53;;;;;;;13.90;6.57;;;;;;;1.47;71.55;94502.28;5006676;28;20384;-77
2024/02/16 06:21:19;;;;;;;12.80;6.18;;;;;;;1.57;71.76;94504.28;5006606;28;20022;-77
2024/02/16 06:23:44;;;;;;;11.98;5.50;;;;;;;1.63;71.32;94507.75;5005430;28;20030;-77
2024/02/16 06:26:10;;;;;;;12.25;5.95;;;;;;;1.70;71.10;94493.41;5006370;28;20253;-77
2024/02/16 06:28:35;;;;;;;29.10;7.45;;;;;;;1.81;70.91;94499.59;5005838;28;20026;-76
2024/02/16 06:31:00;;;;;;;12.02;6.53;;;;;;;1.93;70.50;94492.38;5006452;28;20027;-77
2024/02/16 06:33:26;;;;;;;20.02;8.10;;;;;;;2.08;69.52;94506.81;5006332;28;20086;-77
2024/02/16 06:35:51;;;;;;;28.83;8.48;;;;;;;2.18;69.24;94505.09;5006353;28;20034;-77
2024/02/16 06:38:17;;;;;;;22.05;7.88;;;;;;;2.25;69.14;94502.25;5006417;28;20038;-77
2024/02/16 06:40:42;;;;;;;22.25;8.27;;;;;;;2.35;68.73;94499.75;5006009;28;20313;-77
2024/02/16 06:43:08;;;;;;;22.92;8.10;;;;;;;2.39;68.83;94494.81;5006053;28;20068;-77
2024/02/16 06:45:34;;;;;;;19.55;7.32;;;;;;;2.49;68.53;94494.13;5006465;28;20244;-76
2024/02/16 06:48:00;;;;;;;15.70;6.75;;;;;;;2.59;67.61;94497.66;5006312;28;20030;-75
2024/02/16 06:50:25;;;;;;;24.98;8.05;;;;;;;2.68;67.51;94499.84;5004743;28;20052;-77
2024/02/16 06:52:51;;;;;;;19.23;8.13;;;;;;;2.80;67.21;94496.03;5005897;28;20027;-76
2024/02/16 06:55:16;;;;;;;36.70;8.07;;;;;;;2.92;67.12;94497.72;5005786;28;20133;-75
2024/02/16 06:57:43;;;;;;;28.13;9.27;;;;;;;2.97;66.42;94501.19;5005771;28;20309;-75
2024/02/16 07:00:09;;;;;;;28.50;8.43;;;;;;;3.07;66.09;94491.78;5006050;28;20221;-76
2024/02/16 07:02:35;;;;;;;21.85;7.63;;;;;;;3.12;65.91;94507.66;5005673;28;20034;-77
2024/02/16 07:05:01;;;;;;;24.80;7.75;;;;;;;3.22;65.39;94513.00;5006029;28;20320;-77
2024/02/16 07:07:26;;;;;;;22.60;7.47;;;;;;;3.31;65.01;94505.44;5005541;28;20198;-78
2024/02/16 07:09:52;;;;;;;18.30;8.07;;;;;;;3.35;64.76;94501.25;5005548;28;20026;-74
2024/02/16 07:12:18;;;;;;;21.75;8.32;;;;;;;3.40;64.66;94515.25;5005424;28;20317;-74
2024/02/16 07:14:45;;;;;;;23.08;8.18;;;;;;;3.42;64.59;94509.75;5005500;28;20026;-78
2024/02/16 07:17:11;;;;;;;20.02;7.68;;;;;;;3.40;64.59;94498.66;5005189;28;20337;-76
2024/02/16 07:19:37;;;;;;;16.15;7.70;;;;;;;3.44;64.72;94515.56;5005533;28;20022;-75
2024/02/16 07:22:02;;;;;;;20.92;7.60;;;;;;;3.45;65.52;94505.81;5005197;28;20028;-68
2024/02/16 07:24:28;;;;;;;23.88;9.77;;;;;;;3.47;65.93;94509.78;5005406;28;20058;-68
2024/02/16 07:26:54;;;;;;;37.92;8.90;;;;;;;3.41;66.86;94506.28;5003896;28;20022;-69
2024/02/16 07:29:19;;;;;;;29.23;9.30;;;;;;;3.45;66.81;94495.25;5004897;28;20030;-67
2024/02/16 07:31:44;;;;;;;25.05;8.80;;;;;;;3.56;66.74;94499.53;5005046;28;20257;-68
2024/02/16 07:34:11;;;;;;;28.73;9.95;;;;;;;3.63;66.77;94492.22;5005108;28;20085;-69
2024/02/16 07:36:37;;;;;;;39.63;9.57;;;;;;;3.72;66.25;94497.81;5004766;28;20033;-69
2024/02/16 07:39:04;;;;;;;33.75;9.13;;;;;;;3.86;65.99;94506.09;5003173;28;20018;-70
2024/02/16 07:41:30;;;;;;;19.92;9.45;;;;;;;3.89;65.58;94505.56;5003086;28;20032;-77
2024/02/16 07:43:55;;;;;;;29.55;9.55;;;;;;;4.00;65.05;94502.72;5003896;28;20050;-76
2024/02/16 07:46:21;;;;;;;21.58;9.00;;;;;;;4.20;64.79;94496.75;5004488;28;20022;-77
2024/02/16 07:48:46;;;;;;;21.67;9.15;;;;;;;4.30;64.51;94503.16;5004997;28;20103;-77
2024/02/16 07:51:11;;;;;;;23.50;7.55;;;;;;;4.40;64.32;94500.56;5004931;28;20268;-77
2024/02/16 07:53:37;;;;;;;30.42;8.25;;;;;;;4.36;63.40;94510.03;5004610;28;20042;-78
2024/02/16 07:56:03;;;;;;;23.80;7.80;;;;;;;4.51;62.72;94504.81;5004778;28;20018;-78
2024/02/16 07:58:29;;;;;;;11.38;5.65;;;;;;;4.60;62.02;94511.19;5003579;28;20074;-78
2024/02/16 08:00:55;;;;;;;18.35;6.50;;;;;;;4.68;61.57;94507.25;5004282;28;20114;-78
2024/02/16 08:03:20;;;;;;;8.65;4.68;;;;;;;4.76;60.84;94509.41;5005119;28;20026;-77
2024/02/16 08:05:46;;;;;;;11.15;5.78;;;;;;;4.85;60.57;94514.16;5004934;28;20041;-78
2024/02/16 08:08:11;;;;;;;11.88;5.90;;;;;;;4.89;60.31;94513.38;5004667;28;20026;-78
2024/02/16 08:10:36;;;;;;;15.10;6.15;;;;;;;4.95;59.90;94511.53;5004499;28;20073;-78
2024/02/16 08:13:02;;;;;;;14.13;5.95;;;;;;;5.05;59.68;94516.03;5004735;28;20028;-81
2024/02/16 08:15:27;;;;;;;17.38;6.75;;;;;;;5.14;59.37;94517.91;5005219;28;20202;-80
2024/02/16 08:17:53;;;;;;;9.88;5.15;;;;;;;5.17;58.47;94514.75;5004882;28;20089;-80
2024/02/16 08:20:19;;;;;;;12.38;5.85;;;;;;;5.10;58.71;94510.78;5004804;28;20085;-79
2024/02/16 08:22:44;;;;;;;13.45;6.60;;;;;;;5.14;58.67;94514.47;5004787;28;20026;-82
2024/02/16 08:25:12;;;;;;;15.98;7.63;;;;;;;5.19;58.60;94507.34;5004749;28;20030;-83
2024/02/16 08:27:38;;;;;;;18.17;6.72;;;;;;;5.14;58.81;94517.13;5004202;28;20029;-79
2024/02/16 08:30:04;;;;;;;22.27;7.20;;;;;;;5.25;58.48;94510.81;5004638;28;20023;-83
2024/02/16 08:32:29;;;;;;;15.43;6.38;;;;;;;5.40;57.97;94518.72;5004948;28;20069;-77
2024/02/16 08:34:55;;;;;;;16.95;6.63;;;;;;;5.52;57.82;94510.53;5004647;28;20081;-80
2024/02/16 08:37:21;;;;;;;18.10;7.65;;;;;;;5.63;57.47;94516.59;5004773;28;20085;-81
2024/02/16 08:39:47;;;;;;;27.70;7.55;;;;;;;5.75;57.41;94518.97;5004595;28;20037;-81
2024/02/16 08:42:12;;;;;;;25.50;8.40;;;;;;;5.87;57.00;94516.06;5004647;28;20029;-81
2024/02/16 08:44:40;;;;;;;15.63;8.18;;;;;;;5.90;56.61;94510.22;5003195;28;20025;-81
2024/02/16 08:47:06;;;;;;;28.15;7.65;;;;;;;5.94;56.10;94516.56;5004796;28;20026;-77
2024/02/16 08:49:31;;;;;;;21.65;9.18;;;;;;;6.02;56.57;94518.69;5004450;28;20256;-79
2024/02/16 08:51:57;;;;;;;13.88;7.40;;;;;;;6.02;56.65;94513.41;5004194;28;20018;-77
2024/02/16 08:54:22;;;;;;;17.83;8.23;;;;;;;6.15;55.98;94520.81;5003973;28;20129;-76
2024/02/16 08:56:48;;;;;;;20.95;7.97;;;;;;;6.22;55.41;94521.28;5004076;28;20097;-76
2024/02/16 08:59:14;;;;;;;34.17;8.32;;;;;;;6.32;55.78;94515.19;5003731;28;20030;-76
2024/02/16 09:01:39;;;;;;;17.42;7.85;;;;;;;6.38;54.89;94513.31;5003530;28;20396;-77
2024/02/16 09:04:05;;;;;;;22.52;8.13;;;;;;;6.47;54.57;94516.19;5003941;28;20033;-74
2024/02/16 09:06:31;;;;;;;20.23;6.50;;;;;;;6.49;54.40;94512.22;5003726;28;20029;-73
2024/02/16 09:08:56;;;;;;;12.63;6.32;;;;;;;6.62;54.54;94519.59;5003533;28;20108;-74
2024/02/16 09:11:23;;;;;;;16.50;6.45;;;;;;;6.76;53.51;94524.31;5003440;28;20034;-74
2024/02/16 09:13:49;;;;;;;19.23;6.88;;;;;;;6.91;52.64;94526.88;5002507;28;20253;-74
2024/02/16 09:16:14;;;;;;;12.50;6.00;;;;;;;6.97;52.80;94523.13;5003614;28;20221;-73
2024/02/16 09:18:40;;;;;;;16.60;6.65;;;;;;;7.12;52.73;94532.03;5003590;28;20018;-74
2024/02/16 09:21:06;;;;;;;18.13;6.43;;;;;;;7.04;51.83;94536.06;5003505;28;20061;-73
2024/02/16 09:23:33;;;;;;;18.17;6.43;;;;;;;7.17;51.48;94535.47;5002368;28;20114;-74
2024/02/16 09:25:59;;;;;;;22.80;6.78;;;;;;;7.28;51.48;94528.22;5002949;28;20229;-74
2024/02/16 09:28:28;;;;;;;16.00;6.35;;;;;;;7.43;51.48;94530.00;5002745;28;20022;-75
2024/02/16 09:30:55;;;;;;;16.75;6.18;;;;;;;7.58;51.26;94529.09;5001310;28;20022;-74
2024/02/16 09:33:21;;;;;;;15.38;6.32;;;;;;;7.70;49.92;94524.22;5003060;28;20324;-74
2024/02/16 09:35:47;;;;;;;11.98;5.78;;;;;;;7.81;50.31;94531.00;5003135;28;20093;-75
2024/02/16 09:38:13;;;;;;;17.95;6.20;;;;;;;7.91;50.48;94524.03;5003157;28;20073;-75
2024/02/16 09:40:38;;;;;;;9.88;5.40;;;;;;;7.78;50.58;94520.19;5003321;28;20375;-75
2024/02/16 09:43:04;;;;;;;22.55;6.72;;;;;;;7.93;50.68;94521.91;5003551;28;20026;-74
2024/02/16 09:45:31;;;;;;;14.32;6.40;;;;;;;7.98;50.44;94521.88;5002643;28;20378;-74
2024/02/16 09:47:57;;;;;;;14.45;6.18;;;;;;;8.08;50.06;94521.75;5003323;28;20217;-74
2024/02/16 09:50:23;;;;;;;31.48;6.65;;;;;;;8.16;49.86;94518.50;5003348;28;20037;-74
2024/02/16 09:52:50;;;;;;;14.90;6.72;;;;;;;8.26;50.11;94517.56;5003195;28;20018;-75
2024/02/16 09:55:17;;;;;;;27.02;7.43;;;;;;;8.43;50.26;94515.31;5002934;28;20042;-74
2024/02/16 09:57:43;;;;;;;14.32;6.00;;;;;;;8.52;49.42;94506.72;5003101;28;20037;-74
2024/02/16 10:00:09;;;;;;;12.02;5.50;;;;;;;8.66;48.95;94512.13;5003375;28;20080;-74
2024/02/16 10:02:45;;;;;;;12.45;5.57;;;;;;;8.69;48.75;94508.91;5003031;28;20023;-74
2024/02/16 10:05:19;;;;;;;8.88;4.60;;;;;;;8.80;47.83;94507.69;5004354;28;20054;-74
2024/02/16 10:07:45;;;;;;;13.07;4.57;;;;;;;8.88;48.00;94504.41;5003331;28;20026;-74
2024/02/16 10:10:40;;;;;;;13.93;5.68;;;;;;;8.92;47.75;94497.44;5003210;28;20310;-74
2024/02/16 10:13:06;;;;;;;13.10;5.75;;;;;;;8.99;47.93;94491.75;4994514;28;20035;-73
2024/02/16 10:15:32;;;;;;;18.73;6.30;;;;;;;9.03;47.82;94480.25;5003374;28;20022;-74
2024/02/16 10:18:16;;;;;;;10.98;6.18;;;;;;;9.09;47.34;94482.84;5003474;28;20122;-73
2024/02/16 10:20:44;;;;;;;10.88;5.25;;;;;;;8.96;46.71;94485.16;5003239;28;20026;-74
2024/02/16 10:23:11;;;;;;;15.07;5.80;;;;;;;9.12;47.02;94482.25;5002718;28;20105;-74
2024/02/16 10:25:40;;;;;;;14.18;4.65;;;;;;;9.20;46.84;94478.97;5006074;28;20041;-74
2024/02/16 10:28:08;;;;;;;9.40;4.32;;;;;;;9.29;46.29;94482.56;5006620;28;20027;-74
2024/02/16 10:30:39;;;;;;;8.43;4.20;;;;;;;9.36;45.67;94483.00;5006660;28;20083;-75
2024/02/16 10:33:06;;;;;;;12.45;4.47;;;;;;;9.42;45.97;94481.03;5006551;28;20018;-74
2024/02/16 10:35:36;;;;;;;8.30;4.90;;;;;;;9.09;45.51;94474.88;5006780;28;20022;-74
2024/02/16 10:38:06;;;;;;;10.45;5.10;;;;;;;9.17;45.24;94466.25;5006800;28;20229;-74
2024/02/16 10:40:37;;;;;;;19.55;5.32;;;;;;;9.22;46.49;94474.94;5006363;28;20022;-74
2024/02/16 10:43:07;;;;;;;19.58;6.88;;;;;;;9.36;47.08;94466.22;5006580;28;20033;-75
2024/02/16 10:45:35;;;;;;;16.67;5.78;;;;;;;9.47;46.51;94467.66;5006560;28;20359;-75
2024/02/16 10:48:01;;;;;;;15.57;6.10;;;;;;;9.54;46.66;94467.28;5006172;28;20022;-74
2024/02/16 10:50:28;;;;;;;14.43;5.20;;;;;;;9.61;45.21;94468.50;5005769;28;20028;-75
2024/02/16 10:52:56;;;;;;;9.15;4.53;;;;;;;9.71;44.29;94462.22;5006132;28;20042;-74
2024/02/16 10:55:23;;;;;;;11.05;4.72;;;;;;;9.66;44.04;94454.28;5005635;28;20126;-74
2024/02/16 10:57:50;;;;;;;9.25;5.28;;;;;;;9.74;44.70;94460.81;5006061;28;20220;-74
2024/02/16 11:00:17;;;;;;;11.60;5.57;;;;;;;9.78;44.42;94456.50;5005791;28;20038;-72
2024/02/16 11:03:01;;;;;;;10.88;4.68;;;;;;;9.77;43.59;94455.72;5005936;28;20277;-73
2024/02/16 11:05:36;;;;;;;9.90;4.47;;;;;;;9.73;44.19;94456.56;5004413;28;20225;-70
2024/02/16 11:08:11;;;;;;;9.32;4.40;;;;;;;9.73;44.45;94449.41;5004712;28;20030;-70
2024/02/16 11:10:36;;;;;;;10.00;5.20;;;;;;;9.86;45.03;94452.38;5005074;28;20325;-71
2024/02/16 11:13:06;;;;;;;12.48;4.22;;;;;;;9.98;44.95;94455.34;5005740;28;20037;-70
2024/02/16 11:15:33;;;;;;;15.73;5.28;;;;;;;10.16;44.40;94457.13;5005254;28;20022;-70
2024/02/16 11:18:01;;;;;;;11.13;3.55;;;;;;;10.29;43.07;94444.13;5004857;28;20249;-70
2024/02/16 11:20:26;;;;;;;6.88;3.83;;;;;;;10.44;43.10;94446.50;5005131;28;20022;-70
2024/02/16 11:22:53;;;;;;;12.40;4.47;;;;;;;10.52;42.54;94437.81;5005076;28;20377;-69
2024/02/16 11:25:20;;;;;;;7.60;3.88;;;;;;;10.63;42.27;94433.84;5002332;28;20221;-70
2024/02/16 11:27:47;;;;;;;8.35;3.13;;;;;;;10.68;40.45;94437.50;5003720;28;20232;-70
2024/02/16 11:30:12;;;;;;;6.05;3.70;;;;;;;10.70;41.21;94438.00;5004128;28;20279;-69
2024/02/16 11:32:38;;;;;;;14.20;4.13;;;;;;;10.77;41.96;94435.72;5004334;28;20022;-70
2024/02/16 11:35:07;;;;;;;7.43;3.80;;;;;;;10.83;42.36;94431.84;5004482;28;20027;-69